Airfield :
LOGIN :

Register | Disclaimer

   EN    FR    IT 

 










Legend :    VFR   Marginal VFR   IFR   Intensive IFR   Very Intensive IFR
Visi :
Ceiling :
>= 8 km
>= 3000ft
5 to 8 km
1000 to 3000 ft
1500m to 5 km
500 to 1000 ft
800 to 1500m
200 to 500 ft
< 800m
< 200 ft
Symbols :   Thunderstorms  Fog  Heavy snow  Heavy precipitations  Wind > 20 kt
SIGMETs :     Misc.  Thunderstorms  Icing  Turbulence  Mountain Waves  Volcanic Ashes







- Airport Elevation : 37 ft


EHVL - Vlieland Heliport

CURRENT METAR :
  • 230355Z AUTO 26011KT 4000 BR OVC036 08/07 Q1026 GRN

EXPIRED METARs :
  • 230339Z AUTO 25011KT 3700 BR OVC036 08/07 Q1026 GRN
  • 230325Z AUTO 24011KT 3500 BR OVC036 08/07 Q1026 YLO
  • 230255Z AUTO 24011KT 4200 BR OVC033 08/07 Q1026 GRN
  • 230225Z AUTO 23011KT 4100 BR BKN030 OVC034 08/07 Q1026 GRN
  • 230209Z AUTO 24010KT 3700 BR OVC031 08/07 Q1026 GRN
  • 230155Z AUTO 23011KT 3900 BR OVC032 08/07 Q1026 GRN
  • 230135Z AUTO 24012KT 3700 BR OVC032 08/07 Q1026 GRN
  • 230125Z AUTO 23011KT 3700 BR OVC032 07/07 Q1026 GRN
  • 230106Z AUTO 23011KT 3700 BR OVC031 07/07 Q1026 GRN

Expired Forecast.
No reported NOTAMs for that airfield.



MET'MAP, your aeronautical weather chart ! - Copyright ORBIFLY December 2007 - Disclaimer

ORBIFLY MET'MAP TEAM :

Programming & Development : Alexandra Zaïnal
Concept & Development : Baudouin d'Aumeries
Co-Development & Prog : Marc-Olivier Méhu
Technical & hardware support : Manuel Goepfert

Contact : metmap@orbifly.com




SOURCES & CREDITS :

   NOAA